createdAt,value
2018-09-15T00:00:01.805Z,1014.41
2018-09-15T00:01:01.861Z,1014.42
2018-09-15T00:02:01.886Z,1014.44
2018-09-15T00:03:01.831Z,1014.42
2018-09-15T00:04:01.861Z,1014.41
2018-09-15T00:05:01.875Z,1014.40
2018-09-15T00:06:01.868Z,1014.39
2018-09-15T00:07:01.907Z,1014.42
2018-09-15T00:08:01.885Z,1014.41
2018-09-15T00:09:01.915Z,1014.40
2018-09-15T00:10:01.930Z,1014.39
2018-09-15T00:11:01.905Z,1014.41
2018-09-15T00:12:01.972Z,1014.38
2018-09-15T00:13:01.950Z,1014.35
2018-09-15T00:14:01.979Z,1014.35
2018-09-15T00:15:01.955Z,1014.35
2018-09-15T00:16:01.984Z,1014.36
2018-09-15T00:17:01.999Z,1014.36
2018-09-15T00:18:01.992Z,1014.33
2018-09-15T00:19:02.033Z,1014.34
2018-09-15T00:20:02.001Z,1014.36
2018-09-15T00:21:02.037Z,1014.32
2018-09-15T00:22:02.037Z,1014.32
2018-09-15T00:23:02.103Z,1014.30
2018-09-15T00:24:02.064Z,1014.28
2018-09-15T00:25:02.073Z,1014.28
2018-09-15T00:26:02.080Z,1014.31
2018-09-15T00:27:02.107Z,1014.31
2018-09-15T00:28:02.108Z,1014.30
2018-09-15T00:29:02.125Z,1014.33
2018-09-15T00:30:02.118Z,1014.29
2018-09-15T00:31:02.142Z,1014.33
2018-09-15T00:32:02.124Z,1014.30
2018-09-15T00:33:02.131Z,1014.26
2018-09-15T00:34:02.195Z,1014.27
2018-09-15T00:35:02.158Z,1014.22
2018-09-15T00:36:02.220Z,1014.27
2018-09-15T00:37:02.189Z,1014.25
2018-09-15T00:38:02.212Z,1014.28
2018-09-15T00:39:02.323Z,1014.23
2018-09-15T00:40:02.251Z,1014.26
2018-09-15T00:41:02.298Z,1014.26
2018-09-15T00:42:02.253Z,1014.22
2018-09-15T00:43:02.251Z,1014.23
2018-09-15T00:44:02.266Z,1014.25
2018-09-15T00:45:02.291Z,1014.27
2018-09-15T00:46:02.321Z,1014.24
2018-09-15T00:47:02.281Z,1014.26
2018-09-15T00:48:02.305Z,1014.26
2018-09-15T00:49:02.301Z,1014.25
2018-09-15T00:50:02.315Z,1014.24
2018-09-15T00:51:02.367Z,1014.23
2018-09-15T00:52:02.358Z,1014.19
2018-09-15T00:53:02.368Z,1014.19
2018-09-15T00:54:02.392Z,1014.18
2018-09-15T00:55:02.372Z,1014.17
2018-09-15T00:56:02.400Z,1014.14
2018-09-15T00:57:02.408Z,1014.15
2018-09-15T00:58:02.411Z,1014.16
2018-09-15T00:59:02.417Z,1014.16
2018-09-15T01:00:02.431Z,1014.15
2018-09-15T01:01:02.416Z,1014.12
2018-09-15T01:02:02.464Z,1014.09
2018-09-15T01:03:02.540Z,1014.12
2018-09-15T01:04:02.443Z,1014.13
2018-09-15T01:05:02.478Z,1014.15
2018-09-15T01:06:02.493Z,1014.12
2018-09-15T01:07:02.527Z,1014.08
2018-09-15T01:08:02.510Z,1014.14
2018-09-15T01:09:02.527Z,1014.09
2018-09-15T01:10:02.539Z,1014.11
2018-09-15T01:11:02.522Z,1014.11
2018-09-15T01:12:02.522Z,1014.10
2018-09-15T01:13:02.560Z,1014.08
2018-09-15T01:14:02.688Z,1014.08
2018-09-15T01:15:02.565Z,1014.03
2018-09-15T01:16:02.622Z,1014.04
2018-09-15T01:17:02.578Z,1014.03
2018-09-15T01:18:02.637Z,1013.97
2018-09-15T01:19:02.636Z,1014.00
2018-09-15T01:20:02.642Z,1014.00
2018-09-15T01:21:02.640Z,1013.96
2018-09-15T01:22:02.642Z,1013.97
2018-09-15T01:23:02.654Z,1013.98
2018-09-15T01:24:02.660Z,1013.93
2018-09-15T01:25:02.742Z,1013.95
2018-09-15T01:26:02.753Z,1013.96
2018-09-15T01:27:02.683Z,1013.93
2018-09-15T01:28:02.695Z,1013.93
2018-09-15T01:29:02.706Z,1013.90
2018-09-15T01:30:02.723Z,1013.94
2018-09-15T01:31:03.372Z,1013.96
2018-09-15T01:32:02.740Z,1013.96
2018-09-15T01:33:02.752Z,1013.93
2018-09-15T01:34:02.739Z,1013.94
2018-09-15T01:35:02.757Z,1013.95
2018-09-15T01:36:02.765Z,1013.99
2018-09-15T01:37:02.825Z,1013.98
2018-09-15T01:38:02.792Z,1014.00
2018-09-15T01:39:02.819Z,1013.99
2018-09-15T01:40:02.814Z,1013.99
2018-09-15T01:41:02.835Z,1013.99
2018-09-15T01:42:02.868Z,1013.95
2018-09-15T01:43:02.880Z,1013.93
2018-09-15T01:44:02.850Z,1013.95
2018-09-15T01:45:02.849Z,1013.96
2018-09-15T01:46:02.877Z,1013.96
2018-09-15T01:47:02.883Z,1013.93
2018-09-15T01:48:02.906Z,1013.95
2018-09-15T01:49:03.013Z,1013.95
2018-09-15T01:50:03.084Z,1013.95
2018-09-15T01:51:02.920Z,1013.92
2018-09-15T01:52:02.945Z,1013.94
2018-09-15T01:53:02.950Z,1013.93
2018-09-15T01:54:02.970Z,1013.94
2018-09-15T01:55:02.967Z,1013.95
2018-09-15T01:56:02.987Z,1014.00
2018-09-15T01:57:02.982Z,1014.01
2018-09-15T01:58:02.987Z,1014.06
2018-09-15T01:59:02.998Z,1014.06
2018-09-15T02:00:03.013Z,1014.06
2018-09-15T02:01:03.065Z,1013.99
2018-09-15T02:02:03.037Z,1013.96
2018-09-15T02:03:03.032Z,1013.97
2018-09-15T02:04:03.050Z,1013.96
2018-09-15T02:05:03.087Z,1013.95
2018-09-15T02:06:03.099Z,1013.96
2018-09-15T02:07:03.101Z,1013.93
2018-09-15T02:08:03.072Z,1013.93
2018-09-15T02:09:03.118Z,1013.98
2018-09-15T02:10:03.286Z,1013.99
2018-09-15T02:11:03.129Z,1013.98
2018-09-15T02:12:03.154Z,1014.00
2018-09-15T02:13:03.122Z,1013.96
2018-09-15T02:14:03.141Z,1013.96
2018-09-15T02:15:03.171Z,1014.01
2018-09-15T02:16:03.166Z,1014.01
2018-09-15T02:17:03.238Z,1014.07
2018-09-15T02:18:03.222Z,1014.09
2018-09-15T02:19:03.267Z,1014.12
2018-09-15T02:20:03.194Z,1014.14
2018-09-15T02:21:03.211Z,1014.11
2018-09-15T02:22:03.231Z,1014.13
2018-09-15T02:23:03.306Z,1014.13
2018-09-15T02:24:03.273Z,1014.11
2018-09-15T02:25:03.274Z,1014.18
2018-09-15T02:26:03.267Z,1014.15
2018-09-15T02:27:03.287Z,1014.18
2018-09-15T02:28:03.291Z,1014.15
2018-09-15T02:29:03.399Z,1014.18
2018-09-15T02:30:03.299Z,1014.16
2018-09-15T02:31:03.326Z,1014.19
2018-09-15T02:32:03.344Z,1014.18
2018-09-15T02:33:03.338Z,1014.14
2018-09-15T02:34:03.332Z,1014.18
2018-09-15T02:35:03.344Z,1014.16
2018-09-15T02:36:03.364Z,1014.15
2018-09-15T02:37:03.414Z,1014.15
2018-09-15T02:38:03.389Z,1014.17
2018-09-15T02:39:03.374Z,1014.15
2018-09-15T02:40:03.392Z,1014.14
2018-09-15T02:41:03.420Z,1014.16
2018-09-15T02:42:03.429Z,1014.11
2018-09-15T02:43:03.446Z,1014.12
2018-09-15T02:44:03.444Z,1014.13
2018-09-15T02:45:03.462Z,1014.15
2018-09-15T02:46:03.486Z,1014.16
2018-09-15T02:47:03.477Z,1014.13
2018-09-15T02:48:03.499Z,1014.12
2018-09-15T02:49:03.487Z,1014.10
2018-09-15T02:50:03.548Z,1014.07
2018-09-15T02:51:03.513Z,1014.12
2018-09-15T02:52:03.527Z,1014.13
2018-09-15T02:53:03.534Z,1014.13
2018-09-15T02:54:03.557Z,1014.19
2018-09-15T02:55:03.578Z,1014.18
2018-09-15T02:56:03.551Z,1014.17
2018-09-15T02:57:03.565Z,1014.17
2018-09-15T02:58:03.562Z,1014.18
2018-09-15T02:59:03.628Z,1014.21
2018-09-15T03:00:03.608Z,1014.20
2018-09-15T03:01:03.619Z,1014.21
2018-09-15T03:02:03.621Z,1014.18
2018-09-15T03:03:03.622Z,1014.20
2018-09-15T03:04:03.631Z,1014.16
2018-09-15T03:05:03.643Z,1014.14
2018-09-15T03:06:03.696Z,1014.16
2018-09-15T03:07:03.640Z,1014.15
2018-09-15T03:08:03.668Z,1014.12
2018-09-15T03:09:03.659Z,1014.14
2018-09-15T03:10:03.695Z,1014.15
2018-09-15T03:11:03.697Z,1014.13
2018-09-15T03:12:03.719Z,1014.09
2018-09-15T03:13:03.710Z,1014.12
2018-09-15T03:14:03.698Z,1014.14
2018-09-15T03:15:03.725Z,1014.18
2018-09-15T03:16:03.761Z,1014.17
2018-09-15T03:17:03.749Z,1014.17
2018-09-15T03:18:03.753Z,1014.18
2018-09-15T03:19:03.777Z,1014.16
2018-09-15T03:20:03.805Z,1014.17
2018-09-15T03:21:03.837Z,1014.20
2018-09-15T03:22:03.802Z,1014.21
2018-09-15T03:23:03.787Z,1014.23
2018-09-15T03:24:03.835Z,1014.22
2018-09-15T03:25:03.801Z,1014.19
2018-09-15T03:26:03.856Z,1014.23
2018-09-15T03:27:03.843Z,1014.25
2018-09-15T03:28:03.859Z,1014.25
2018-09-15T03:29:03.862Z,1014.25
2018-09-15T03:30:03.872Z,1014.27
2018-09-15T03:31:03.895Z,1014.27
2018-09-15T03:32:03.926Z,1014.27
2018-09-15T03:33:03.889Z,1014.24
2018-09-15T03:34:03.895Z,1014.21
2018-09-15T03:35:03.964Z,1014.19
2018-09-15T03:36:03.919Z,1014.23
2018-09-15T03:37:03.918Z,1014.21
2018-09-15T03:38:03.937Z,1014.24
2018-09-15T03:39:03.957Z,1014.25
2018-09-15T03:40:03.972Z,1014.22
2018-09-15T03:41:03.989Z,1014.19
2018-09-15T03:42:04.056Z,1014.18
2018-09-15T03:43:04.010Z,1014.22
2018-09-15T03:44:04.010Z,1014.24
2018-09-15T03:45:03.999Z,1014.27
2018-09-15T03:46:04.063Z,1014.29
2018-09-15T03:47:04.041Z,1014.31
2018-09-15T03:48:04.059Z,1014.24
2018-09-15T03:49:04.048Z,1014.23
2018-09-15T03:50:04.084Z,1014.29
2018-09-15T03:51:04.051Z,1014.35
2018-09-15T03:52:04.095Z,1014.33
2018-09-15T03:53:04.085Z,1014.33
2018-09-15T03:54:04.084Z,1014.35
2018-09-15T03:55:04.158Z,1014.33
2018-09-15T03:56:04.091Z,1014.31
2018-09-15T03:57:04.159Z,1014.32
2018-09-15T03:58:04.141Z,1014.34
2018-09-15T03:59:04.147Z,1014.35
2018-09-15T04:00:04.193Z,1014.35
2018-09-15T04:01:04.175Z,1014.38
2018-09-15T04:02:04.198Z,1014.39
2018-09-15T04:03:04.154Z,1014.41
2018-09-15T04:04:04.180Z,1014.42
2018-09-15T04:05:04.213Z,1014.48
2018-09-15T04:06:04.211Z,1014.49
2018-09-15T04:07:04.205Z,1014.51
2018-09-15T04:08:04.222Z,1014.48
2018-09-15T04:09:04.222Z,1014.48
2018-09-15T04:10:04.327Z,1014.48
2018-09-15T04:11:04.246Z,1014.47
2018-09-15T04:12:04.303Z,1014.49
2018-09-15T04:13:04.249Z,1014.47
2018-09-15T04:14:04.277Z,1014.46
2018-09-15T04:15:04.294Z,1014.50
2018-09-15T04:16:04.320Z,1014.50
2018-09-15T04:17:04.281Z,1014.49
2018-09-15T04:18:04.293Z,1014.55
2018-09-15T04:19:04.345Z,1014.61
2018-09-15T04:20:04.343Z,1014.61
2018-09-15T04:21:04.349Z,1014.52
2018-09-15T04:22:04.363Z,1014.51
2018-09-15T04:23:04.377Z,1014.53
2018-09-15T04:24:04.377Z,1014.60
2018-09-15T04:25:04.399Z,1014.61
2018-09-15T04:26:04.375Z,1014.58
2018-09-15T04:27:04.435Z,1014.60
2018-09-15T04:28:04.385Z,1014.58
2018-09-15T04:29:04.402Z,1014.62
2018-09-15T04:30:04.441Z,1014.64
2018-09-15T04:31:04.436Z,1014.70
2018-09-15T04:32:04.460Z,1014.70
2018-09-15T04:33:04.477Z,1014.72
2018-09-15T04:34:04.465Z,1014.76
2018-09-15T04:35:04.464Z,1014.75
2018-09-15T04:36:04.471Z,1014.76
2018-09-15T04:37:04.524Z,1014.78
2018-09-15T04:38:04.477Z,1014.83
2018-09-15T04:39:04.521Z,1014.76
2018-09-15T04:40:04.536Z,1014.80
2018-09-15T04:41:04.563Z,1014.70
2018-09-15T04:42:04.588Z,1014.73
2018-09-15T04:43:04.541Z,1014.78
2018-09-15T04:44:04.585Z,1014.75
2018-09-15T04:45:04.592Z,1014.73
2018-09-15T04:46:04.583Z,1014.79
2018-09-15T04:47:04.571Z,1014.79
2018-09-15T04:48:04.585Z,1014.81
2018-09-15T04:49:04.612Z,1014.82
2018-09-15T04:50:04.611Z,1014.81
2018-09-15T04:51:04.617Z,1014.82
2018-09-15T04:52:04.722Z,1014.84
2018-09-15T04:53:04.658Z,1014.87
2018-09-15T04:54:04.643Z,1014.88
2018-09-15T04:55:04.713Z,1014.85
2018-09-15T04:56:04.648Z,1014.87
2018-09-15T04:57:04.701Z,1014.83
2018-09-15T04:58:04.657Z,1014.89
2018-09-15T04:59:04.729Z,1014.87
2018-09-15T05:00:04.724Z,1014.94
2018-09-15T05:01:04.695Z,1014.91
2018-09-15T05:02:04.726Z,1014.94
2018-09-15T05:03:04.715Z,1014.94
2018-09-15T05:04:04.742Z,1014.96
2018-09-15T05:05:04.744Z,1014.93
2018-09-15T05:06:04.761Z,1014.95
2018-09-15T05:07:04.781Z,1015.01
2018-09-15T05:08:04.815Z,1014.99
2018-09-15T05:09:04.789Z,1014.96
2018-09-15T05:10:05.350Z,1014.97
2018-09-15T05:11:04.785Z,1015.04
2018-09-15T05:12:05.379Z,1014.99
2018-09-15T05:13:04.844Z,1015.04
2018-09-15T05:14:04.858Z,1014.99
2018-09-15T05:15:04.831Z,1015.03
2018-09-15T05:16:04.844Z,1015.01
2018-09-15T05:17:04.877Z,1015.04
2018-09-15T05:18:04.891Z,1015.06
2018-09-15T05:19:04.876Z,1015.08
2018-09-15T05:20:05.837Z,1015.07
2018-09-15T05:21:04.887Z,1015.12
2018-09-15T05:22:04.920Z,1015.08
2018-09-15T05:23:04.929Z,1015.10
2018-09-15T05:24:04.980Z,1015.11
2018-09-15T05:25:04.927Z,1015.16
2018-09-15T05:26:04.946Z,1015.21
2018-09-15T05:27:05.168Z,1015.18
2018-09-15T05:28:04.977Z,1015.21
2018-09-15T05:29:04.968Z,1015.18
2018-09-15T05:30:04.975Z,1015.19
2018-09-15T05:31:04.991Z,1015.22
2018-09-15T05:32:05.008Z,1015.26
2018-09-15T05:33:05.031Z,1015.30
2018-09-15T05:34:05.018Z,1015.28
2018-09-15T05:35:05.052Z,1015.32
2018-09-15T05:36:05.038Z,1015.33
2018-09-15T05:37:05.073Z,1015.30
2018-09-15T05:38:05.046Z,1015.36
2018-09-15T05:39:05.093Z,1015.32
2018-09-15T05:40:05.119Z,1015.33
2018-09-15T05:41:05.107Z,1015.32
2018-09-15T05:42:05.096Z,1015.32
2018-09-15T05:43:05.165Z,1015.31
2018-09-15T05:44:05.151Z,1015.41
2018-09-15T05:45:05.138Z,1015.40
2018-09-15T05:46:05.185Z,1015.37
2018-09-15T05:47:05.147Z,1015.41
2018-09-15T05:48:05.156Z,1015.39
2018-09-15T05:49:05.161Z,1015.38
2018-09-15T05:50:05.231Z,1015.41
2018-09-15T05:51:05.228Z,1015.49
2018-09-15T05:52:05.197Z,1015.46
2018-09-15T05:53:05.189Z,1015.47
2018-09-15T05:54:05.249Z,1015.49
2018-09-15T05:55:05.216Z,1015.53
2018-09-15T05:56:05.278Z,1015.53
2018-09-15T05:57:05.270Z,1015.51
2018-09-15T05:58:05.249Z,1015.55
2018-09-15T05:59:05.254Z,1015.53
2018-09-15T06:00:05.303Z,1015.54
2018-09-15T06:01:05.277Z,1015.53
2018-09-15T06:02:05.308Z,1015.58
2018-09-15T06:03:05.290Z,1015.61
2018-09-15T06:04:05.324Z,1015.62
2018-09-15T06:05:05.354Z,1015.63
2018-09-15T06:06:05.354Z,1015.62
2018-09-15T06:07:05.323Z,1015.65
2018-09-15T06:08:05.328Z,1015.66
2018-09-15T06:09:05.374Z,1015.66
2018-09-15T06:10:05.378Z,1015.69
2018-09-15T06:11:05.388Z,1015.65
2018-09-15T06:12:05.382Z,1015.65
2018-09-15T06:13:05.391Z,1015.68
2018-09-15T06:14:05.401Z,1015.64
2018-09-15T06:15:05.427Z,1015.67
2018-09-15T06:16:05.475Z,1015.69
2018-09-15T06:17:05.421Z,1015.64
2018-09-15T06:18:05.439Z,1015.61
2018-09-15T06:19:05.453Z,1015.65
2018-09-15T06:20:05.466Z,1015.75
2018-09-15T06:21:05.505Z,1015.82
2018-09-15T06:22:05.493Z,1015.71
2018-09-15T06:23:05.496Z,1015.77
2018-09-15T06:24:05.542Z,1015.75
2018-09-15T06:25:05.490Z,1015.76
2018-09-15T06:26:05.532Z,1015.80
2018-09-15T06:27:05.531Z,1015.80
2018-09-15T06:28:05.589Z,1015.79
2018-09-15T06:29:05.550Z,1015.77
2018-09-15T06:30:05.574Z,1015.81
2018-09-15T06:31:05.638Z,1015.85
2018-09-15T06:32:05.577Z,1015.86
2018-09-15T06:33:05.625Z,1015.85
2018-09-15T06:34:05.640Z,1015.86
2018-09-15T06:35:05.608Z,1015.88
2018-09-15T06:36:05.648Z,1015.83
2018-09-15T06:37:05.627Z,1015.90
2018-09-15T06:38:05.645Z,1015.84
2018-09-15T06:39:05.720Z,1015.87
2018-09-15T06:40:05.652Z,1015.87
2018-09-15T06:41:05.707Z,1015.88
2018-09-15T06:42:05.692Z,1015.85
2018-09-15T06:43:05.690Z,1015.87
2018-09-15T06:44:05.752Z,1015.91
2018-09-15T06:45:05.726Z,1015.89
2018-09-15T06:46:05.729Z,1015.93
2018-09-15T06:47:05.775Z,1015.94
2018-09-15T06:48:05.779Z,1015.95
2018-09-15T06:49:05.750Z,1015.96
2018-09-15T06:50:05.738Z,1015.94
2018-09-15T06:51:05.763Z,1015.98
2018-09-15T06:52:05.813Z,1015.98
2018-09-15T06:53:05.822Z,1015.98
2018-09-15T06:54:05.789Z,1016.01
2018-09-15T06:55:05.897Z,1016.01
2018-09-15T06:56:05.837Z,1016.00
2018-09-15T06:57:05.841Z,1016.00
2018-09-15T06:58:05.844Z,1016.00
2018-09-15T06:59:05.864Z,1016.02
2018-09-15T07:00:06.426Z,1016.03
2018-09-15T07:01:05.905Z,1016.06
2018-09-15T07:02:05.900Z,1016.01
2018-09-15T07:03:05.896Z,1016.05
2018-09-15T07:04:05.884Z,1016.10
2018-09-15T07:05:05.910Z,1016.05
2018-09-15T07:06:05.961Z,1016.10
2018-09-15T07:07:05.941Z,1016.08
2018-09-15T07:08:05.923Z,1016.06
2018-09-15T07:09:05.972Z,1016.08
2018-09-15T07:10:05.951Z,1016.08
2018-09-15T07:11:05.993Z,1016.14
2018-09-15T07:12:05.986Z,1016.11
2018-09-15T07:13:06.042Z,1016.09
2018-09-15T07:14:06.016Z,1016.16
2018-09-15T07:15:06.003Z,1016.12
2018-09-15T07:16:06.039Z,1016.20
2018-09-15T07:17:06.032Z,1016.17
2018-09-15T07:18:06.026Z,1016.19
2018-09-15T07:19:06.087Z,1016.22
2018-09-15T07:20:06.085Z,1016.19
2018-09-15T07:21:06.070Z,1016.17
2018-09-15T07:22:06.053Z,1016.21
2018-09-15T07:23:06.077Z,1016.20
2018-09-15T07:24:06.108Z,1016.26
2018-09-15T07:25:06.088Z,1016.33
2018-09-15T07:26:06.201Z,1016.22
2018-09-15T07:27:06.137Z,1016.24
2018-09-15T07:28:06.152Z,1016.20
2018-09-15T07:29:06.185Z,1016.22
2018-09-15T07:30:06.159Z,1016.29
2018-09-15T07:31:06.177Z,1016.24
2018-09-15T07:32:06.200Z,1016.26
2018-09-15T07:33:06.199Z,1016.27
2018-09-15T07:34:06.203Z,1016.25
2018-09-15T07:35:06.196Z,1016.26
2018-09-15T07:36:06.206Z,1016.24
2018-09-15T07:37:07.076Z,1016.24
2018-09-15T07:38:06.244Z,1016.25
2018-09-15T07:39:06.284Z,1016.26
2018-09-15T07:40:06.270Z,1016.28
2018-09-15T07:41:06.265Z,1016.24
2018-09-15T07:45:09.002Z,1016.32
2018-09-15T07:46:08.946Z,1016.41
2018-09-15T07:47:08.950Z,1016.36
2018-09-15T07:48:08.975Z,1016.40
2018-09-15T07:49:08.996Z,1016.40
2018-09-15T07:50:09.048Z,1016.43
2018-09-15T07:51:09.004Z,1016.44
2018-09-15T07:52:09.032Z,1016.49
2018-09-15T07:53:09.023Z,1016.49
2018-09-15T07:54:09.050Z,1016.48
2018-09-15T07:55:09.133Z,1016.51
2018-09-15T07:56:09.055Z,1016.43
2018-09-15T07:57:09.069Z,1016.49
2018-09-15T07:58:09.067Z,1016.54
2018-09-15T07:59:09.092Z,1016.54
2018-09-15T08:00:09.121Z,1016.52
2018-09-15T08:01:09.124Z,1016.48
2018-09-15T08:02:09.137Z,1016.58
2018-09-15T08:03:09.158Z,1016.52
2018-09-15T08:04:09.107Z,1016.54
2018-09-15T08:05:09.127Z,1016.60
2018-09-15T08:06:09.162Z,1016.60
2018-09-15T08:07:09.167Z,1016.60
2018-09-15T08:08:09.170Z,1016.60
2018-09-15T08:09:09.213Z,1016.60
2018-09-15T08:10:09.192Z,1016.58
2018-09-15T08:11:09.254Z,1016.57
2018-09-15T08:12:09.192Z,1016.56
2018-09-15T08:13:09.227Z,1016.59
2018-09-15T08:14:09.242Z,1016.59
2018-09-15T08:15:09.240Z,1016.63
2018-09-15T08:16:09.243Z,1016.61
2018-09-15T08:17:09.253Z,1016.66
2018-09-15T08:18:09.250Z,1016.67
2018-09-15T08:19:09.311Z,1016.67
2018-09-15T08:20:09.282Z,1016.68
2018-09-15T08:21:09.325Z,1016.75
2018-09-15T08:22:09.315Z,1016.68
2018-09-15T08:23:09.291Z,1016.69
2018-09-15T08:24:09.360Z,1016.72
2018-09-15T08:25:09.337Z,1016.66
2018-09-15T08:26:09.409Z,1016.73
2018-09-15T08:27:09.362Z,1016.74
2018-09-15T08:28:09.469Z,1016.73
2018-09-15T08:29:09.398Z,1016.71
2018-09-15T08:30:09.386Z,1016.76
2018-09-15T08:31:09.377Z,1016.79
2018-09-15T08:32:09.541Z,1016.79
2018-09-15T08:33:09.508Z,1016.77
2018-09-15T08:34:09.411Z,1016.78
2018-09-15T08:35:09.432Z,1016.80
2018-09-15T08:36:09.549Z,1016.78
2018-09-15T08:37:09.470Z,1016.80
2018-09-15T08:38:09.506Z,1016.77
2018-09-15T08:39:09.479Z,1016.82
2018-09-15T08:40:09.512Z,1016.82
2018-09-15T08:41:09.581Z,1016.84
2018-09-15T08:42:09.499Z,1016.90
2018-09-15T08:43:09.732Z,1016.92
2018-09-15T08:44:09.506Z,1016.89
2018-09-15T08:45:09.637Z,1016.98
2018-09-15T08:46:09.522Z,1016.99
2018-09-15T08:47:09.565Z,1016.94
2018-09-15T08:48:09.597Z,1016.99
2018-09-15T08:49:09.556Z,1016.96
2018-09-15T08:50:09.601Z,1016.92
2018-09-15T08:51:09.615Z,1017.01
2018-09-15T08:52:09.594Z,1016.93
2018-09-15T08:53:09.612Z,1016.97
2018-09-15T08:54:09.693Z,1016.94
2018-09-15T08:55:09.651Z,1016.92
2018-09-15T08:56:09.709Z,1017.01
2018-09-15T08:57:09.769Z,1016.97
2018-09-15T08:58:09.654Z,1016.93
2018-09-15T08:59:09.678Z,1016.97
2018-09-15T09:00:09.677Z,1017.01
2018-09-15T09:01:09.677Z,1016.94
2018-09-15T09:02:09.731Z,1016.97
2018-09-15T09:03:09.716Z,1017.01
2018-09-15T09:04:09.707Z,1016.93
2018-09-15T09:05:09.711Z,1016.92
2018-09-15T09:06:09.757Z,1016.92
2018-09-15T09:07:09.762Z,1016.93
2018-09-15T09:08:09.777Z,1016.91
2018-09-15T09:09:10.022Z,1016.93
2018-09-15T09:10:09.817Z,1016.89
2018-09-15T09:11:10.434Z,1016.86
2018-09-15T09:12:09.801Z,1016.93
2018-09-15T09:13:09.844Z,1016.89
2018-09-15T09:14:09.826Z,1016.88
2018-09-15T09:15:10.434Z,1016.88
2018-09-15T09:16:09.873Z,1016.91
2018-09-15T09:17:10.413Z,1016.88
2018-09-15T09:18:09.952Z,1016.86
2018-09-15T09:19:09.954Z,1016.90
2018-09-15T09:20:09.938Z,1016.93
2018-09-15T09:21:09.967Z,1016.93
2018-09-15T09:22:09.885Z,1016.91
2018-09-15T09:23:09.957Z,1017.03
2018-09-15T09:24:09.957Z,1016.95
2018-09-15T09:25:09.940Z,1016.95
2018-09-15T09:26:09.996Z,1016.93
2018-09-15T09:27:09.948Z,1016.96
2018-09-15T09:28:10.316Z,1016.94
2018-09-15T09:29:10.069Z,1016.92
2018-09-15T09:30:10.001Z,1016.98
2018-09-15T09:31:10.002Z,1016.88
2018-09-15T09:32:10.075Z,1016.86
2018-09-15T09:33:10.138Z,1016.91
2018-09-15T09:34:10.024Z,1016.91
2018-09-15T09:35:10.047Z,1016.88
2018-09-15T09:36:10.066Z,1016.90
2018-09-15T09:37:10.065Z,1016.88
2018-09-15T09:38:10.142Z,1016.87
2018-09-15T09:39:10.142Z,1016.86
2018-09-15T09:40:10.106Z,1016.96
2018-09-15T09:41:10.098Z,1016.89
2018-09-15T09:42:10.116Z,1016.90
2018-09-15T09:43:10.327Z,1016.87
2018-09-15T09:44:10.238Z,1016.82
2018-09-15T09:45:10.205Z,1016.88
2018-09-15T09:46:10.209Z,1016.87
2018-09-15T09:47:10.220Z,1016.86
2018-09-15T09:48:10.217Z,1016.85
2018-09-15T09:49:10.477Z,1016.84
2018-09-15T09:50:10.214Z,1016.82
2018-09-15T09:51:10.224Z,1016.81
2018-09-15T09:52:10.249Z,1016.79
2018-09-15T09:53:10.240Z,1016.81
2018-09-15T09:54:10.252Z,1016.90
2018-09-15T09:55:10.284Z,1016.83
2018-09-15T09:56:10.333Z,1016.85
2018-09-15T09:57:10.299Z,1016.91
2018-09-15T09:58:10.287Z,1016.89
2018-09-15T09:59:10.324Z,1016.94
2018-09-15T10:00:10.437Z,1016.98
2018-09-15T10:01:10.368Z,1016.90
2018-09-15T10:02:10.397Z,1016.93
2018-09-15T10:03:10.399Z,1016.96
2018-09-15T10:04:10.445Z,1016.93
2018-09-15T10:05:10.378Z,1016.97
2018-09-15T10:06:10.377Z,1016.97
2018-09-15T10:07:10.414Z,1016.96
2018-09-15T10:08:10.404Z,1017.01
2018-09-15T10:09:10.426Z,1016.98
2018-09-15T10:10:10.462Z,1016.99
2018-09-15T10:11:10.494Z,1017.05
2018-09-15T10:12:10.513Z,1016.92
2018-09-15T10:13:11.077Z,1017.06
2018-09-15T10:14:10.465Z,1016.97
2018-09-15T10:15:10.487Z,1016.95
2018-09-15T10:16:11.486Z,1017.04
2018-09-15T10:17:10.538Z,1017.09
2018-09-15T10:18:10.501Z,1017.08
2018-09-15T10:19:10.554Z,1017.10
2018-09-15T10:20:10.524Z,1017.09
2018-09-15T10:21:10.559Z,1017.07
2018-09-15T10:22:10.584Z,1017.03
2018-09-15T10:23:10.637Z,1017.12
2018-09-15T10:24:10.575Z,1017.02
2018-09-15T10:25:10.617Z,1017.09
2018-09-15T10:26:10.603Z,1017.09
2018-09-15T10:27:10.773Z,1017.09
2018-09-15T10:28:10.627Z,1017.05
2018-09-15T10:29:10.634Z,1017.12
2018-09-15T10:30:10.643Z,1017.08
2018-09-15T10:31:10.796Z,1017.07
2018-09-15T10:32:10.777Z,1017.01
2018-09-15T10:33:10.694Z,1017.01
2018-09-15T10:34:10.724Z,1016.97
2018-09-15T10:35:10.673Z,1016.95
2018-09-15T10:36:10.801Z,1016.98
2018-09-15T10:37:10.721Z,1016.99
2018-09-15T10:38:10.965Z,1016.98
2018-09-15T10:39:10.738Z,1017.05
2018-09-15T10:40:11.046Z,1017.03
2018-09-15T10:41:10.825Z,1017.02
2018-09-15T10:42:10.819Z,1017.05
2018-09-15T10:43:10.791Z,1017.03
2018-09-15T10:44:10.831Z,1017.04
2018-09-15T10:45:10.808Z,1017.06
2018-09-15T10:46:10.836Z,1017.06
2018-09-15T10:47:10.859Z,1017.03
2018-09-15T10:48:10.852Z,1017.07
2018-09-15T10:49:10.872Z,1017.09
2018-09-15T10:50:10.869Z,1017.08
2018-09-15T10:51:10.892Z,1017.10
2018-09-15T10:52:10.907Z,1017.02
2018-09-15T10:53:10.917Z,1017.01
2018-09-15T10:54:10.891Z,1017.00
2018-09-15T10:55:10.935Z,1017.00
2018-09-15T10:56:10.943Z,1017.03
2018-09-15T10:57:10.922Z,1016.98
2018-09-15T10:58:10.981Z,1016.97
2018-09-15T10:59:11.060Z,1016.94
2018-09-15T11:00:11.039Z,1016.94
2018-09-15T11:01:11.008Z,1016.92
2018-09-15T11:02:11.081Z,1017.07
2018-09-15T11:03:11.024Z,1017.04
2018-09-15T11:04:11.050Z,1017.01
2018-09-15T11:05:11.015Z,1017.02
2018-09-15T11:06:11.107Z,1017.05
2018-09-15T11:07:11.055Z,1017.03
2018-09-15T11:08:11.058Z,1017.08
2018-09-15T11:09:11.113Z,1017.14
2018-09-15T11:10:11.092Z,1017.14
2018-09-15T11:11:11.109Z,1017.05
2018-09-15T11:12:11.113Z,1017.08
2018-09-15T11:13:11.189Z,1017.08
2018-09-15T11:14:11.138Z,1017.04
2018-09-15T11:15:11.192Z,1017.04
2018-09-15T11:16:11.148Z,1016.99
2018-09-15T11:17:11.219Z,1016.97
2018-09-15T11:18:11.175Z,1016.96
2018-09-15T11:19:11.198Z,1016.93
2018-09-15T11:20:11.269Z,1016.90
2018-09-15T11:21:11.246Z,1016.90
2018-09-15T11:22:11.245Z,1016.94
2018-09-15T11:23:11.238Z,1016.93
2018-09-15T11:24:11.280Z,1016.97
2018-09-15T11:25:11.242Z,1016.97
2018-09-15T11:26:11.368Z,1016.92
2018-09-15T11:27:11.314Z,1016.96
2018-09-15T11:28:11.318Z,1016.95
2018-09-15T11:29:11.288Z,1017.01
2018-09-15T11:30:11.311Z,1016.98
2018-09-15T11:31:11.347Z,1016.99
2018-09-15T11:32:11.354Z,1016.90
2018-09-15T11:33:11.327Z,1016.96
2018-09-15T11:34:11.427Z,1016.93
2018-09-15T11:35:11.355Z,1016.95
2018-09-15T11:36:11.422Z,1016.95
2018-09-15T11:37:11.492Z,1016.94
2018-09-15T11:38:11.720Z,1016.97
2018-09-15T11:39:11.443Z,1016.92
2018-09-15T11:40:11.466Z,1016.91
2018-09-15T11:41:11.502Z,1016.88
2018-09-15T11:42:11.467Z,1016.95
2018-09-15T11:43:11.453Z,1016.93
2018-09-15T11:44:11.475Z,1016.91
2018-09-15T11:45:11.491Z,1016.92
2018-09-15T11:46:11.538Z,1016.91
2018-09-15T11:47:11.579Z,1016.90
2018-09-15T11:48:11.543Z,1016.87
2018-09-15T11:49:11.561Z,1016.92
2018-09-15T11:50:11.572Z,1016.89
2018-09-15T11:51:11.545Z,1016.90
2018-09-15T11:52:11.606Z,1016.93
2018-09-15T11:53:11.602Z,1016.90
2018-09-15T11:54:11.600Z,1016.86
2018-09-15T11:55:11.612Z,1016.88
2018-09-15T11:56:11.627Z,1016.91
2018-09-15T11:57:11.678Z,1016.90
2018-09-15T11:58:11.645Z,1016.92
2018-09-15T11:59:11.649Z,1016.92
2018-09-15T12:00:11.779Z,1016.90
2018-09-15T12:01:11.700Z,1016.86
2018-09-15T12:02:11.776Z,1016.88
2018-09-15T12:03:11.765Z,1016.90
2018-09-15T12:04:12.641Z,1016.92
2018-09-15T12:05:11.740Z,1016.91
2018-09-15T12:06:12.463Z,1016.88
2018-09-15T12:07:11.850Z,1016.82
2018-09-15T12:08:11.786Z,1016.88